MMAA 090747Z 01005KT 6SM FEW100 25/24 A2986 RMK 8/030 HZY= 090747

MMAA 090648Z 02002KT 6SM SCT100 26/24 A2987 RMK 8/030 HZY ISOL CI= 090649

MMAA 090549Z 03003KT 6SM SCT100 26/24 A2988 RMK SLP118 52004 952 8/030 HZY CI= 090551

MMAA 090449Z 02003KT 6SM SKC 26/25 A2989 RMK HZY= 090449

MMAA 090348Z 33003KT 6SM SKC 27/25 A2988 RMK HZY= 090349

MMAA 090243Z 26003KT 6SM SKC 28/25 A2987 RMK SLP114 52021 903 HZY= 090244

MMAA 090140Z 21004KT 6SM SKC 28/24 A2985 RMK HZY= 090141

MMAA 090040Z 28003KT 6SM SKC 28/24 A2982 RMK HZY= 090040

COR MMAA 082348Z 27003KT 6SM SKC 28/24 A2981 RMK SLP093 57001 954 HZY= 082354

MMAA 082348Z 27003KT 6SM SKC 28/24 A2981 RMK SLP093 57001 951 HZY= 082350

MMAA 082243Z 27006KT 6SM SKC 29/24 A2979 RMK HZY= 082244

MMAA 082142Z 22003KT 6SM SKC 30/25 A2980 RMK HZY= 082143

MMAA 082040Z 21004KT 6SM SKC 30/25 A2981 RMK SLP094 57035 908 HZY= 082041

MMAA 081947Z 22008KT 6SM SKC 31/25 A2983 RMK HZY= 081947

MMAA 081848Z 21005KT 6SM SKC 31/25 A2985 RMK HZY= 081849

MMAA 081804Z RTD 00000KT 6SM SKC 31/24 A2990 RMK SLP129 57001 909 HZY= 081805

MMAA 081648Z 00000KT 6SM SKC 31/24 A2992 RMK HZY= 081648

MMAA 081543Z 00000KT 6SM SKC 28/24 A2993 RMK HZY= 081544

MMAA 081445Z 00000KT 6SM SKC 26/24 A2993 RMK SLP130 52011 910 HZY= 081446

MMAA 081417Z RTD 00000KT 6SM SKC 26/24 A2993 RMK HZY= 081418

MMAA 081241Z 01003KT 5SM SKC 24/23 A2989 RMK HZY ISOL CI= 081242

MMAA 081146Z 01004KT 6SM SKC 25/24 A2988 RMK SLP119 52003 912 HZY ISOL AC= 081148

MMAA 081041Z 04003KT 5SM SKC 25/24 A2987 RMK HZY ISOL CU= 081042

MMAA 080941Z 34004KT 5SM FEW300 25/24 A2986 RMK 8/002 HZY ISOL CU= 080943

MMAA 080846Z 33003KT 5SM SCT300 26/24 A2987 RMK SLP116 57004 906 8/002 HZY DSNT CU S SE SW= 080848

MMAA 080741Z 35003KT 5SM FEW300 26/24 A2988 RMK 8/002 HZY DSNT AC= 080742

MMAA 080641Z 01003KT 5SM FEW300 26/24 A2987 RMK 8/002 HZY DSNT AC S SW= 080642

MMAA 080541Z 00000KT 5SM FEW300 26/24 A2988 RMK SLP120 52009 951 8/002 HZY DSNT AC S SW= 080546

MMAA 080440Z 08003KT 6SM SKC 26/24 A2988 RMK HZY ISOL CU= 080441

MMAA 080345Z 03003KT 6SM SKC 27/25 A2987 RMK HZY ISOL CU= 080345

MMAA 080249Z 29003KT 6SM SKC 27/24 A2986 RMK SLP111 52022 900 HZY ISOL CU= 080250

MMAA 080149Z 28003KT 6SM SKC 27/24 A2983 RMK HZY= 080150

MMAA 080046Z 26005KT 6SM FEW010 28/24 A2980 RMK 8/100 HZY= 080047

MMAA 072350Z 26005KT 6SM SKC 28/24 A2979 RMK SLP089 52003 953 HZY= 072351

MMAA 072240Z 26011KT 6SM SKC 29/24 A2977 RMK HZY= 072241

MMAA 072140Z 23007KT 6SM SKC 30/25 A2977 RMK HZY ISOL CU= 072140

MMAA 072040Z 25006KT 6SM SKC 30/25 A2978 RMK SLP086 57004 952 HZY= 072041

MMAA 071950Z 24008KT 6SM SKC 30/25 A2980 RMK HZY DSNT CU S= 071951

MMAA 071859Z RTD 26007KT 6SM SKC 30/25 A2983 RMK HZY= 071900

MMAA 071740Z 22005KT 6SM SKC 30/23 A2987 RMK SLP120 54000 964 HZY= 071741

MMAA 071643Z 00000KT 6SM SKC 30/23 A2989 RMK HZY= 071644

MMAA 071547Z 00000KT 6SM SKC 28/23 A2990 RMK HZY= 071548

MMAA 071443Z 35003KT 6SM SKC 27/22 A2988 RMK SLP120 52013 974 HZY= 071444

MMAA 071347Z 00000KT 6SM SKC 24/22 A2986 RMK HZY= 071347

MMAA 071244Z 00000KT 6SM FEW300 24/23 A2985 RMK 8/001 HZY= 071245

MMAA 071146Z 34005KT 6SM FEW300 25/22 A2984 RMK SLP107 57003 973 8/001 HZY ISOL CU= 071147

MMAA 071040Z 32003KT 6SM SKC 24/23 A2984 RMK HZY= 071041

MMAA 070940Z 07003KT 6SM SKC 24/23 A2984 RMK HZY= 070940

MMAA 070842Z 00000KT 6SM SKC 25/23 A2985 RMK SLP110 57011 969 HZY= 070842

MMAA 070743Z 30003KT 6SM SKC 24/23 A2987 RMK HZY= 070744